KBMG

Monroe County Airport

Bloomington, Indiana, USA
METAR KBMG 170753Z AUTO 21007KT 10SM CLR 06/M02 A3014 RMK AO2 SLP208 T00561022
Observed Flight Rules
Dec-17 @ 07:53 UTC (25 minutes ago) Visual Flight Rules
Wind Visibility Clouds
210° at 7 knots 10 miles
  • Clear skies
Temperatures Readings
Current 6°C / 43°F
Dewpoint -2°C / 28°F
Humidity 57%
Altimeter 30.14" Hg
Pressure 1020.8 hPa
Elevation 257
METAR KBMG 170753Z AUTO 21007KT 10SM CLR 06/M02 A3014 RMK AO2 SLP208 T00561022
Observed Flight Rules
Dec-17 @ 07:53 UTC
(25 minutes ago)
VFR
Wind Visibility
210° at 7 knots 10 miles
Clouds
  • Clear skies
Temperature Dewpoint
6°C / 43°F -2°C / 28°F
Humidity Altimeter Pressure
57% 30.14" Hg 1020.8 hPa